Main page
METAR-TAF:

METAR-TAF

Airports :

Mitiga International Airport

Tripoli, Libya

latitude: 32-54N, longitude: 13-17E, elevation: 11 m

METAR: missing

Time: 03:41 (01:41 UTC)

Forecast

The report was made 2 hours and 41 minutes ago, at 23:00 UTC
Forecast valid from 13 at 00 UTC to 13 at 24 UTC
Wind 15 kt from the East with gusts up to 25 kt
Visibility: 6000 m
Few clouds at a height of 2500 ft
Scattered clouds at a height of 7000 ft
Probability 40% :
Temporary
from 13 at 00 UTC to 13 at 18 UTC
Visibility: 4000 m
Blowing sand,

TAF: HLLM 122300Z 1300/1324 09015G25KT 6000 FEW025 SCT070 PROB40 TEMPO 1300/1318 4000 BLSA

Weather observations and forecasts of more than 4000 airports (METAR and TAF reports).

The available stations are represented by yellow and red dots on the map.

Hover mouse over dot to see the name of the station.

Then click to see weather observations and forecasts.

To change the map : click on the green buttons with a black cross to zoom in, on the green button with a dash to zoom out, or on the green arrows for adjacent maps.


METAR-TAF: